African Queen — V7VZ8 — position and weather

sailwx.info

Track history (hours):
 
Tides and Currents Weather Stations Pressure Air Temp Water Temp Dewpoint Dewpoint Depression Visibility Wind Speed Wind Dir Waves Ship Positions

African Queen

Last reported at 2018-Mar-17 16:52 UTC. Time now 2018-Jun-22 18:58 UTC.
Position N 18°02' W 063°08'.
Warning: this ship's position is months out of date.

Length 26 m; draft 2.2 m.

Type: Pleasure craft. MMSI: 538070780.

Date/timePositionNaut miles runAvg speedWind from/ knotsBaromVisibWave heightAir tempDewpointWater temp
2018-Mar-17 16:52N 18°02' W 063°08'3 9.1
2018-Mar-17 16:30N 17°59' W 063°06'95 2.0
2018-Mar-15 16:45N 16°51' W 061°56'2 7.9
2018-Mar-15 16:28N 16°53' W 061°54'3 7.1
2018-Mar-15 16:00N 16°55' W 061°51'4 7.4
2018-Mar-15 15:30N 16°58' W 061°48'3 6.0
2018-Mar-15 15:00N 17°00' W 061°47'1 2.4
2018-Mar-15 14:30N 17°01' W 061°46'0 0.0
2018-Mar-15 14:00N 17°01' W 061°46'0 0.0
2018-Mar-15 13:27N 17°01' W 061°46'0 0.0
2018-Mar-15 13:00N 17°01' W 061°46'0 0.0
2018-Mar-15 12:30N 17°01' W 061°46'0 0.0
2018-Mar-15 12:00N 17°01' W 061°46'0 0.0
2018-Mar-15 11:30N 17°01' W 061°46'0 0.0
2018-Mar-15 11:00N 17°01' W 061°46'0 0.0
2018-Mar-15 10:30N 17°01' W 061°46'0 0.0
2018-Mar-15 10:00N 17°01' W 061°46'0 0.0
2018-Mar-15 09:27N 17°01' W 061°46'0 0.0
2018-Mar-15 09:01N 17°01' W 061°46'0 0.0
2018-Mar-15 08:31N 17°01' W 061°46'0 0.0
2018-Mar-15 08:01N 17°01' W 061°46'0 0.0
2018-Mar-15 07:31N 17°01' W 061°46'0 0.0
2018-Mar-15 06:58N 17°01' W 061°46'0 0.0
2018-Mar-15 06:31N 17°01' W 061°46'0 0.0
2018-Mar-15 06:01N 17°01' W 061°46'0 0.0
2018-Mar-15 05:31N 17°01' W 061°46'0 0.0
2018-Mar-15 04:58N 17°01' W 061°46'0 0.0
2018-Mar-15 04:28N 17°01' W 061°46'0 0.0
2018-Mar-15 03:58N 17°01' W 061°46'0 0.0
2018-Mar-15 03:28N 17°01' W 061°46'0 0.0
2018-Mar-15 02:58N 17°01' W 061°46'0 0.0
2018-Mar-15 02:28N 17°01' W 061°46'0 0.0
2018-Mar-15 01:58N 17°01' W 061°46'0 0.0
2018-Mar-15 01:28N 17°01' W 061°46'0 0.0
2018-Mar-15 00:52N 17°01' W 061°46'0 0.0
2018-Mar-15 00:28N 17°01' W 061°46'0 0.0
2018-Mar-14 23:58N 17°01' W 061°46'0 0.0
2018-Mar-14 23:28N 17°01' W 061°46'0 0.0
2018-Mar-14 22:58N 17°01' W 061°46'0 0.0
2018-Mar-14 22:28N 17°01' W 061°46'0 0.0
2018-Mar-14 21:58N 17°01' W 061°46'0 0.0
2018-Mar-14 21:26N 17°01' W 061°46'0 0.0
2018-Mar-14 20:58N 17°01' W 061°46'0 0.0
2018-Mar-14 20:28N 17°01' W 061°46'0 0.0
2018-Mar-14 19:58N 17°01' W 061°46'0 0.0
2018-Mar-14 19:28N 17°01' W 061°46'0 0.0
2018-Mar-14 18:58N 17°01' W 061°46'0 0.0
2018-Mar-14 18:28N 17°01' W 061°46'0 0.0
2018-Mar-14 17:58N 17°01' W 061°46'0 0.0
2018-Mar-14 17:28N 17°01' W 061°46'0 0.0
2018-Mar-14 16:58N 17°01' W 061°46'0 0.0
2018-Mar-14 16:28N 17°01' W 061°46'0 0.0
2018-Mar-14 15:58N 17°01' W 061°46'0 0.0
2018-Mar-14 15:28N 17°01' W 061°46'0 0.0
2018-Mar-14 14:58N 17°01' W 061°46'0 0.0
2018-Mar-14 14:28N 17°01' W 061°46'0 0.0
2018-Mar-14 13:58N 17°01' W 061°46'0 0.0
2018-Mar-14 13:28N 17°01' W 061°46'0 0.0
2018-Mar-14 12:58N 17°01' W 061°46'0 0.0
2018-Mar-14 12:28N 17°01' W 061°46'0 0.0
2018-Mar-14 11:58N 17°01' W 061°46'0 0.0
2018-Mar-14 11:30N 17°01' W 061°46'0 0.0
2018-Mar-14 10:58N 17°01' W 061°46'0 0.0
2018-Mar-14 10:29N 17°01' W 061°46'0 0.0
2018-Mar-14 09:58N 17°01' W 061°46'0 0.0
2018-Mar-14 09:25N 17°01' W 061°46'0 0.0
2018-Mar-14 08:55N 17°01' W 061°46'0 0.0
2018-Mar-14 08:28N 17°01' W 061°46'0 0.0
2018-Mar-14 07:58N 17°01' W 061°46'0 0.0
2018-Mar-14 07:28N 17°01' W 061°46'0 0.0
2018-Mar-14 06:58N 17°01' W 061°46'0 0.0
2018-Mar-14 06:28N 17°01' W 061°46'0 0.0
2018-Mar-14 05:58N 17°01' W 061°46'0 0.0
2018-Mar-14 05:28N 17°01' W 061°46'0 0.0
2018-Mar-14 04:58N 17°01' W 061°46'0 0.0
2018-Mar-14 04:28N 17°01' W 061°46'0 0.0
2018-Mar-14 03:58N 17°01' W 061°46'0 0.0
2018-Mar-14 03:28N 17°01' W 061°46'0 0.0
2018-Mar-14 02:58N 17°01' W 061°46'0 0.0
2018-Mar-14 02:28N 17°01' W 061°46'0 0.0
2018-Mar-14 01:58N 17°01' W 061°46'0 0.0
2018-Mar-14 01:28N 17°01' W 061°46'0 0.0
2018-Mar-14 00:58N 17°01' W 061°46'0 0.0
2018-Mar-14 00:28N 17°01' W 061°46'0 0.0
2018-Mar-13 23:58N 17°01' W 061°46'0 0.0
2018-Mar-13 23:28N 17°01' W 061°46'0 0.0
2018-Mar-13 22:58N 17°01' W 061°46'0 0.0
2018-Mar-13 22:28N 17°01' W 061°46'0 0.0
2018-Mar-13 21:58N 17°01' W 061°46'0 0.0
2018-Mar-13 21:28N 17°01' W 061°46'0 0.0
2018-Mar-13 20:58N 17°01' W 061°46'0 0.0
2018-Mar-13 20:28N 17°01' W 061°46'0 0.0
2018-Mar-13 19:58N 17°01' W 061°46'0 0.0
2018-Mar-13 19:28N 17°01' W 061°46'0 0.0
2018-Mar-13 18:58N 17°01' W 061°46'0 0.0
2018-Mar-13 18:28N 17°01' W 061°46'0 0.0
2018-Mar-13 17:55N 17°01' W 061°46'0 0.0
2018-Mar-13 17:28N 17°01' W 061°46'0 0.0
2018-Mar-13 16:58N 17°01' W 061°46'0 0.0
2018-Mar-13 16:28N 17°01' W 061°46'0 0.0
2018-Mar-13 15:58N 17°01' W 061°46'0 0.0
2018-Mar-13 15:28N 17°01' W 061°46'0 0.0
2018-Mar-13 14:58N 17°01' W 061°46'0 0.0
2018-Mar-13 14:28N 17°01' W 061°46'0 0.0
2018-Mar-13 13:58N 17°01' W 061°46'0 0.0
2018-Mar-13 13:28N 17°01' W 061°46'0 0.0
2018-Mar-13 12:58N 17°01' W 061°46'0 0.0
2018-Mar-13 12:28N 17°01' W 061°46'0 0.0
2018-Mar-13 11:58N 17°01' W 061°46'0 0.0
2018-Mar-13 11:28N 17°01' W 061°46'0 0.0
2018-Mar-13 10:58N 17°01' W 061°46'0 0.0
2018-Mar-13 10:28N 17°01' W 061°46'0 0.0
2018-Mar-13 09:58N 17°01' W 061°46'0 0.0
2018-Mar-13 09:28N 17°01' W 061°46'0 0.0
2018-Mar-13 08:58N 17°01' W 061°46'0 0.0
2018-Mar-13 08:28N 17°01' W 061°46'0 0.0
2018-Mar-13 07:58N 17°01' W 061°46'0 0.0
2018-Mar-13 07:28N 17°01' W 061°46'0 0.0
2018-Mar-13 06:58N 17°01' W 061°46'0 0.0
2018-Mar-13 06:28N 17°01' W 061°46'0 0.0
2018-Mar-13 05:58N 17°01' W 061°46'0 0.0
2018-Mar-13 05:28N 17°01' W 061°46'0 0.0
2018-Mar-13 04:58N 17°01' W 061°46'0 0.0
2018-Mar-13 04:28N 17°01' W 061°46'0 0.0
2018-Mar-13 03:58N 17°01' W 061°46'0 0.0
2018-Mar-13 03:28N 17°01' W 061°46'0 0.0
2018-Mar-13 02:58N 17°01' W 061°46'0 0.0
2018-Mar-13 02:28N 17°01' W 061°46'0 0.0
2018-Mar-13 01:58N 17°01' W 061°46'0 0.0
2018-Mar-13 01:28N 17°01' W 061°46'0 0.0
2018-Mar-13 00:58N 17°01' W 061°46'0 0.0
2018-Mar-13 00:28N 17°01' W 061°46'0 0.0
2018-Mar-12 23:58N 17°01' W 061°46'0 0.0
2018-Mar-12 23:28N 17°01' W 061°46'0 0.0
2018-Mar-12 22:58N 17°01' W 061°46'0 0.0
2018-Mar-12 22:28N 17°01' W 061°46'0 0.0
2018-Mar-12 21:58N 17°01' W 061°46'0 0.0
2018-Mar-12 21:28N 17°01' W 061°46'0 0.0
2018-Mar-12 20:58N 17°01' W 061°46'0 0.0
2018-Mar-12 20:28N 17°01' W 061°46'0 0.0
2018-Mar-12 19:58N 17°01' W 061°46'0 0.0
2018-Mar-12 19:28N 17°01' W 061°46'0 0.0
2018-Mar-12 18:58N 17°01' W 061°46'0 0.0
2018-Mar-12 18:28N 17°01' W 061°46'0 0.0
2018-Mar-12 17:58N 17°01' W 061°46'0 0.0
2018-Mar-12 17:28N 17°01' W 061°46'0 0.0
2018-Mar-12 16:58N 17°01' W 061°46'0 0.0
2018-Mar-12 16:28N 17°01' W 061°46'0 0.0
2018-Mar-12 15:58N 17°01' W 061°46'0 0.0
2018-Mar-12 15:28N 17°01' W 061°46'0 0.0
2018-Mar-12 14:58N 17°01' W 061°46'0 0.0
2018-Mar-12 14:28N 17°01' W 061°46'0 0.0
2018-Mar-12 13:58N 17°01' W 061°46'0 0.0
2018-Mar-12 13:28N 17°01' W 061°46'0 0.0
2018-Mar-12 12:58N 17°01' W 061°46'0 0.0
2018-Mar-12 12:28N 17°01' W 061°46'0 0.0
2018-Mar-12 11:58N 17°01' W 061°46'0 0.0
2018-Mar-12 11:28N 17°01' W 061°46'0 0.0
2018-Mar-12 10:58N 17°01' W 061°46'0 0.0
2018-Mar-12 10:28N 17°01' W 061°46'0 0.0
2018-Mar-12 09:58N 17°01' W 061°46'0 0.0
2018-Mar-12 09:28N 17°01' W 061°46'0 0.0
2018-Mar-12 08:58N 17°01' W 061°46'0 0.0
2018-Mar-12 08:28N 17°01' W 061°46'0 0.0
2018-Mar-12 07:58N 17°01' W 061°46'0 0.0
2018-Mar-12 07:28N 17°01' W 061°46'0 0.0
2018-Mar-12 06:58N 17°01' W 061°46'0 0.0
2018-Mar-12 06:25N 17°01' W 061°46'0 0.0
2018-Mar-12 05:58N 17°01' W 061°46'0 0.0
2018-Mar-12 05:28N 17°01' W 061°46'0 0.0
2018-Mar-12 04:58N 17°01' W 061°46'0 0.0
2018-Mar-12 04:28N 17°01' W 061°46'0 0.0
2018-Mar-12 03:58N 17°01' W 061°46'0 0.0
2018-Mar-12 03:28N 17°01' W 061°46'0 0.0
2018-Mar-12 02:58N 17°01' W 061°46'0 0.0
2018-Mar-12 02:28N 17°01' W 061°46'0 0.0
2018-Mar-12 01:58N 17°01' W 061°46'0 0.0
2018-Mar-12 01:28N 17°01' W 061°46'0 0.0
2018-Mar-12 00:58N 17°01' W 061°46'0 0.0
2018-Mar-12 00:28N 17°01' W 061°46'0 0.0
2018-Mar-11 23:58N 17°01' W 061°46'0 0.0
2018-Mar-11 23:28N 17°01' W 061°46'0 0.0
2018-Mar-11 22:58N 17°01' W 061°46'0 0.0
2018-Mar-11 22:28N 17°01' W 061°46'0 0.0
2018-Mar-11 21:58N 17°01' W 061°46'0 0.0
2018-Mar-11 21:25N 17°01' W 061°46'0 0.0
2018-Mar-11 20:58N 17°01' W 061°46'0 0.0
2018-Mar-11 20:28N 17°01' W 061°46'0 0.0
2018-Mar-11 19:37N 17°01' W 061°46'0 0.0
2018-Mar-11 19:28N 17°01' W 061°46'0 0.0
2018-Mar-11 18:58N 17°01' W 061°46'0 0.0
2018-Mar-11 18:28N 17°01' W 061°46'0 0.0
2018-Mar-11 17:58N 17°01' W 061°46'0 0.0
2018-Mar-11 17:28N 17°01' W 061°46'0 0.0
2018-Mar-11 16:58N 17°01' W 061°46'0 0.0
2018-Mar-11 16:28N 17°01' W 061°46'0 0.0
2018-Mar-11 15:58N 17°01' W 061°46'0 0.0
2018-Mar-11 15:28N 17°01' W 061°46'0 0.2
2018-Mar-11 14:54N 17°01' W 061°46'1 2.9
2018-Mar-11 14:30N 17°00' W 061°46'0 0.9
2018-Mar-11 14:00N 17°00' W 061°46'0 0.0
2018-Mar-11 13:30N 17°00' W 061°46'0 0.0
2018-Mar-11 13:00N 17°00' W 061°46'0 0.0
2018-Mar-11 12:30N 17°00' W 061°46'0 0.0
2018-Mar-11 07:21N 17°00' W 061°46'0 0.0
2018-Mar-11 07:00N 17°00' W 061°46'0 0.0
2018-Mar-11 06:21N 17°00' W 061°46'0 0.0
2018-Mar-11 06:00N 17°00' W 061°46'0 0.0
2018-Mar-11 05:30N 17°00' W 061°46'0 0.0
2018-Mar-11 05:00N 17°00' W 061°46'0 0.0
2018-Mar-11 04:30N 17°00' W 061°46'0 0.0
2018-Mar-11 04:00N 17°00' W 061°46'0 0.0
2018-Mar-11 03:30N 17°00' W 061°46'0 0.0
2018-Mar-11 03:00N 17°00' W 061°46'0 0.0
2018-Mar-11 02:30N 17°00' W 061°46'0 0.0
2018-Mar-11 02:00N 17°00' W 061°46'0 0.0
2018-Mar-11 01:30N 17°00' W 061°46'0 0.0
2018-Mar-11 01:00N 17°00' W 061°46'0 0.0
2018-Mar-11 00:27N 17°00' W 061°46'0 0.0
2018-Mar-11 00:00N 17°00' W 061°46'0 0.0
2018-Mar-10 23:30N 17°00' W 061°46'0 0.0
2018-Mar-10 23:00N 17°00' W 061°46'0 0.0
2018-Mar-10 22:27N 17°00' W 061°46'0 0.2
2018-Mar-10 22:00N 17°00' W 061°46'1 2.0
2018-Mar-10 21:30N 16°60' W 061°46'4 8.5
2018-Mar-10 21:00N 16°56' W 061°44'  
Track history (hours):
 
Tides and Currents Weather Stations Pressure Air Temp Water Temp Dewpoint Dewpoint Depression Visibility Wind Speed Wind Dir Waves Ship Positions

African Queen

Last reported at 2018-Mar-17 16:52 UTC. Time now 2018-Jun-22 18:58 UTC.
Position N 18°02' W 063°08'.
Warning: this ship's position is months out of date.

Length 26 m; draft 2.2 m.

Type: Pleasure craft. MMSI: 538070780.

Date/timePositionNaut miles runAvg speedWind from/ knotsBaromVisibWave heightAir tempDewpointWater temp
2018-Mar-17 16:52N 18°02' W 063°08'3 9.1
2018-Mar-17 16:30N 17°59' W 063°06'95 2.0
2018-Mar-15 16:45N 16°51' W 061°56'2 7.9
2018-Mar-15 16:28N 16°53' W 061°54'3 7.1
2018-Mar-15 16:00N 16°55' W 061°51'4 7.4
2018-Mar-15 15:30N 16°58' W 061°48'3 6.0
2018-Mar-15 15:00N 17°00' W 061°47'1 2.4
2018-Mar-15 14:30N 17°01' W 061°46'0 0.0
2018-Mar-15 14:00N 17°01' W 061°46'0 0.0
2018-Mar-15 13:27N 17°01' W 061°46'0 0.0
2018-Mar-15 13:00N 17°01' W 061°46'0 0.0
2018-Mar-15 12:30N 17°01' W 061°46'0 0.0
2018-Mar-15 12:00N 17°01' W 061°46'0 0.0
2018-Mar-15 11:30N 17°01' W 061°46'0 0.0
2018-Mar-15 11:00N 17°01' W 061°46'0 0.0
2018-Mar-15 10:30N 17°01' W 061°46'0 0.0
2018-Mar-15 10:00N 17°01' W 061°46'0 0.0
2018-Mar-15 09:27N 17°01' W 061°46'0 0.0
2018-Mar-15 09:01N 17°01' W 061°46'0 0.0
2018-Mar-15 08:31N 17°01' W 061°46'0 0.0
2018-Mar-15 08:01N 17°01' W 061°46'0 0.0
2018-Mar-15 07:31N 17°01' W 061°46'0 0.0
2018-Mar-15 06:58N 17°01' W 061°46'0 0.0
2018-Mar-15 06:31N 17°01' W 061°46'0 0.0
2018-Mar-15 06:01N 17°01' W 061°46'0 0.0
2018-Mar-15 05:31N 17°01' W 061°46'0 0.0
2018-Mar-15 04:58N 17°01' W 061°46'0 0.0
2018-Mar-15 04:28N 17°01' W 061°46'0 0.0
2018-Mar-15 03:58N 17°01' W 061°46'0 0.0
2018-Mar-15 03:28N 17°01' W 061°46'0 0.0
2018-Mar-15 02:58N 17°01' W 061°46'0 0.0
2018-Mar-15 02:28N 17°01' W 061°46'0 0.0
2018-Mar-15 01:58N 17°01' W 061°46'0 0.0
2018-Mar-15 01:28N 17°01' W 061°46'0 0.0
2018-Mar-15 00:52N 17°01' W 061°46'0 0.0
2018-Mar-15 00:28N 17°01' W 061°46'0 0.0
2018-Mar-14 23:58N 17°01' W 061°46'0 0.0
2018-Mar-14 23:28N 17°01' W 061°46'0 0.0
2018-Mar-14 22:58N 17°01' W 061°46'0 0.0
2018-Mar-14 22:28N 17°01' W 061°46'0 0.0
2018-Mar-14 21:58N 17°01' W 061°46'0 0.0
2018-Mar-14 21:26N 17°01' W 061°46'0 0.0
2018-Mar-14 20:58N 17°01' W 061°46'0 0.0
2018-Mar-14 20:28N 17°01' W 061°46'0 0.0
2018-Mar-14 19:58N 17°01' W 061°46'0 0.0
2018-Mar-14 19:28N 17°01' W 061°46'0 0.0
2018-Mar-14 18:58N 17°01' W 061°46'0 0.0
2018-Mar-14 18:28N 17°01' W 061°46'0 0.0
2018-Mar-14 17:58N 17°01' W 061°46'0 0.0
2018-Mar-14 17:28N 17°01' W 061°46'0 0.0
2018-Mar-14 16:58N 17°01' W 061°46'0 0.0
2018-Mar-14 16:28N 17°01' W 061°46'0 0.0
2018-Mar-14 15:58N 17°01' W 061°46'0 0.0
2018-Mar-14 15:28N 17°01' W 061°46'0 0.0
2018-Mar-14 14:58N 17°01' W 061°46'0 0.0
2018-Mar-14 14:28N 17°01' W 061°46'0 0.0
2018-Mar-14 13:58N 17°01' W 061°46'0 0.0
2018-Mar-14 13:28N 17°01' W 061°46'0 0.0
2018-Mar-14 12:58N 17°01' W 061°46'0 0.0
2018-Mar-14 12:28N 17°01' W 061°46'0 0.0
2018-Mar-14 11:58N 17°01' W 061°46'0 0.0
2018-Mar-14 11:30N 17°01' W 061°46'0 0.0
2018-Mar-14 10:58N 17°01' W 061°46'0 0.0
2018-Mar-14 10:29N 17°01' W 061°46'0 0.0
2018-Mar-14 09:58N 17°01' W 061°46'0 0.0
2018-Mar-14 09:25N 17°01' W 061°46'0 0.0
2018-Mar-14 08:55N 17°01' W 061°46'0 0.0
2018-Mar-14 08:28N 17°01' W 061°46'0 0.0
2018-Mar-14 07:58N 17°01' W 061°46'0 0.0
2018-Mar-14 07:28N 17°01' W 061°46'0 0.0
2018-Mar-14 06:58N 17°01' W 061°46'0 0.0
2018-Mar-14 06:28N 17°01' W 061°46'0 0.0
2018-Mar-14 05:58N 17°01' W 061°46'0 0.0
2018-Mar-14 05:28N 17°01' W 061°46'0 0.0
2018-Mar-14 04:58N 17°01' W 061°46'0 0.0
2018-Mar-14 04:28N 17°01' W 061°46'0 0.0
2018-Mar-14 03:58N 17°01' W 061°46'0 0.0
2018-Mar-14 03:28N 17°01' W 061°46'0 0.0
2018-Mar-14 02:58N 17°01' W 061°46'0 0.0
2018-Mar-14 02:28N 17°01' W 061°46'0 0.0
2018-Mar-14 01:58N 17°01' W 061°46'0 0.0
2018-Mar-14 01:28N 17°01' W 061°46'0 0.0
2018-Mar-14 00:58N 17°01' W 061°46'0 0.0
2018-Mar-14 00:28N 17°01' W 061°46'0 0.0
2018-Mar-13 23:58N 17°01' W 061°46'0 0.0
2018-Mar-13 23:28N 17°01' W 061°46'0 0.0
2018-Mar-13 22:58N 17°01' W 061°46'0 0.0
2018-Mar-13 22:28N 17°01' W 061°46'0 0.0
2018-Mar-13 21:58N 17°01' W 061°46'0 0.0
2018-Mar-13 21:28N 17°01' W 061°46'0 0.0
2018-Mar-13 20:58N 17°01' W 061°46'0 0.0
2018-Mar-13 20:28N 17°01' W 061°46'0 0.0
2018-Mar-13 19:58N 17°01' W 061°46'0 0.0
2018-Mar-13 19:28N 17°01' W 061°46'0 0.0
2018-Mar-13 18:58N 17°01' W 061°46'0 0.0
2018-Mar-13 18:28N 17°01' W 061°46'0 0.0
2018-Mar-13 17:55N 17°01' W 061°46'0 0.0
2018-Mar-13 17:28N 17°01' W 061°46'0 0.0
2018-Mar-13 16:58N 17°01' W 061°46'0 0.0
2018-Mar-13 16:28N 17°01' W 061°46'0 0.0
2018-Mar-13 15:58N 17°01' W 061°46'0 0.0
2018-Mar-13 15:28N 17°01' W 061°46'0 0.0
2018-Mar-13 14:58N 17°01' W 061°46'0 0.0
2018-Mar-13 14:28N 17°01' W 061°46'0 0.0
2018-Mar-13 13:58N 17°01' W 061°46'0 0.0
2018-Mar-13 13:28N 17°01' W 061°46'0 0.0
2018-Mar-13 12:58N 17°01' W 061°46'0 0.0
2018-Mar-13 12:28N 17°01' W 061°46'0 0.0
2018-Mar-13 11:58N 17°01' W 061°46'0 0.0
2018-Mar-13 11:28N 17°01' W 061°46'0 0.0
2018-Mar-13 10:58N 17°01' W 061°46'0 0.0
2018-Mar-13 10:28N 17°01' W 061°46'0 0.0
2018-Mar-13 09:58N 17°01' W 061°46'0 0.0
2018-Mar-13 09:28N 17°01' W 061°46'0 0.0
2018-Mar-13 08:58N 17°01' W 061°46'0 0.0
2018-Mar-13 08:28N 17°01' W 061°46'0 0.0
2018-Mar-13 07:58N 17°01' W 061°46'0 0.0
2018-Mar-13 07:28N 17°01' W 061°46'0 0.0
2018-Mar-13 06:58N 17°01' W 061°46'0 0.0
2018-Mar-13 06:28N 17°01' W 061°46'0 0.0
2018-Mar-13 05:58N 17°01' W 061°46'0 0.0
2018-Mar-13 05:28N 17°01' W 061°46'0 0.0
2018-Mar-13 04:58N 17°01' W 061°46'0 0.0
2018-Mar-13 04:28N 17°01' W 061°46'0 0.0
2018-Mar-13 03:58N 17°01' W 061°46'0 0.0
2018-Mar-13 03:28N 17°01' W 061°46'0 0.0
2018-Mar-13 02:58N 17°01' W 061°46'0 0.0
2018-Mar-13 02:28N 17°01' W 061°46'0 0.0
2018-Mar-13 01:58N 17°01' W 061°46'0 0.0
2018-Mar-13 01:28N 17°01' W 061°46'0 0.0
2018-Mar-13 00:58N 17°01' W 061°46'0 0.0
2018-Mar-13 00:28N 17°01' W 061°46'0 0.0
2018-Mar-12 23:58N 17°01' W 061°46'0 0.0
2018-Mar-12 23:28N 17°01' W 061°46'0 0.0
2018-Mar-12 22:58N 17°01' W 061°46'0 0.0
2018-Mar-12 22:28N 17°01' W 061°46'0 0.0
2018-Mar-12 21:58N 17°01' W 061°46'0 0.0
2018-Mar-12 21:28N 17°01' W 061°46'0 0.0
2018-Mar-12 20:58N 17°01' W 061°46'0 0.0
2018-Mar-12 20:28N 17°01' W 061°46'0 0.0
2018-Mar-12 19:58N 17°01' W 061°46'0 0.0
2018-Mar-12 19:28N 17°01' W 061°46'0 0.0
2018-Mar-12 18:58N 17°01' W 061°46'0 0.0
2018-Mar-12 18:28N 17°01' W 061°46'0 0.0
2018-Mar-12 17:58N 17°01' W 061°46'0 0.0
2018-Mar-12 17:28N 17°01' W 061°46'0 0.0
2018-Mar-12 16:58N 17°01' W 061°46'0 0.0
2018-Mar-12 16:28N 17°01' W 061°46'0 0.0
2018-Mar-12 15:58N 17°01' W 061°46'0 0.0
2018-Mar-12 15:28N 17°01' W 061°46'0 0.0
2018-Mar-12 14:58N 17°01' W 061°46'0 0.0
2018-Mar-12 14:28N 17°01' W 061°46'0 0.0
2018-Mar-12 13:58N 17°01' W 061°46'0 0.0
2018-Mar-12 13:28N 17°01' W 061°46'0 0.0
2018-Mar-12 12:58N 17°01' W 061°46'0 0.0
2018-Mar-12 12:28N 17°01' W 061°46'0 0.0
2018-Mar-12 11:58N 17°01' W 061°46'0 0.0
2018-Mar-12 11:28N 17°01' W 061°46'0 0.0
2018-Mar-12 10:58N 17°01' W 061°46'0 0.0
2018-Mar-12 10:28N 17°01' W 061°46'0 0.0
2018-Mar-12 09:58N 17°01' W 061°46'0 0.0
2018-Mar-12 09:28N 17°01' W 061°46'0 0.0
2018-Mar-12 08:58N 17°01' W 061°46'0 0.0
2018-Mar-12 08:28N 17°01' W 061°46'0 0.0
2018-Mar-12 07:58N 17°01' W 061°46'0 0.0
2018-Mar-12 07:28N 17°01' W 061°46'0 0.0
2018-Mar-12 06:58N 17°01' W 061°46'0 0.0
2018-Mar-12 06:25N 17°01' W 061°46'0 0.0
2018-Mar-12 05:58N 17°01' W 061°46'0 0.0
2018-Mar-12 05:28N 17°01' W 061°46'0 0.0
2018-Mar-12 04:58N 17°01' W 061°46'0 0.0
2018-Mar-12 04:28N 17°01' W 061°46'0 0.0
2018-Mar-12 03:58N 17°01' W 061°46'0 0.0
2018-Mar-12 03:28N 17°01' W 061°46'0 0.0
2018-Mar-12 02:58N 17°01' W 061°46'0 0.0
2018-Mar-12 02:28N 17°01' W 061°46'0 0.0
2018-Mar-12 01:58N 17°01' W 061°46'0 0.0
2018-Mar-12 01:28N 17°01' W 061°46'0 0.0
2018-Mar-12 00:58N 17°01' W 061°46'0 0.0
2018-Mar-12 00:28N 17°01' W 061°46'0 0.0
2018-Mar-11 23:58N 17°01' W 061°46'0 0.0
2018-Mar-11 23:28N 17°01' W 061°46'0 0.0
2018-Mar-11 22:58N 17°01' W 061°46'0 0.0
2018-Mar-11 22:28N 17°01' W 061°46'0 0.0
2018-Mar-11 21:58N 17°01' W 061°46'0 0.0
2018-Mar-11 21:25N 17°01' W 061°46'0 0.0
2018-Mar-11 20:58N 17°01' W 061°46'0 0.0
2018-Mar-11 20:28N 17°01' W 061°46'0 0.0
2018-Mar-11 19:37N 17°01' W 061°46'0 0.0
2018-Mar-11 19:28N 17°01' W 061°46'0 0.0
2018-Mar-11 18:58N 17°01' W 061°46'0 0.0
2018-Mar-11 18:28N 17°01' W 061°46'0 0.0
2018-Mar-11 17:58N 17°01' W 061°46'0 0.0
2018-Mar-11 17:28N 17°01' W 061°46'0 0.0
2018-Mar-11 16:58N 17°01' W 061°46'0 0.0
2018-Mar-11 16:28N 17°01' W 061°46'0 0.0
2018-Mar-11 15:58N 17°01' W 061°46'0 0.0
2018-Mar-11 15:28N 17°01' W 061°46'0 0.2
2018-Mar-11 14:54N 17°01' W 061°46'1 2.9
2018-Mar-11 14:30N 17°00' W 061°46'0 0.9
2018-Mar-11 14:00N 17°00' W 061°46'0 0.0
2018-Mar-11 13:30N 17°00' W 061°46'0 0.0
2018-Mar-11 13:00N 17°00' W 061°46'0 0.0
2018-Mar-11 12:30N 17°00' W 061°46'0 0.0
2018-Mar-11 07:21N 17°00' W 061°46'0 0.0
2018-Mar-11 07:00N 17°00' W 061°46'0 0.0
2018-Mar-11 06:21N 17°00' W 061°46'0 0.0
2018-Mar-11 06:00N 17°00' W 061°46'0 0.0
2018-Mar-11 05:30N 17°00' W 061°46'0 0.0
2018-Mar-11 05:00N 17°00' W 061°46'0 0.0
2018-Mar-11 04:30N 17°00' W 061°46'0 0.0
2018-Mar-11 04:00N 17°00' W 061°46'0 0.0
2018-Mar-11 03:30N 17°00' W 061°46'0 0.0
2018-Mar-11 03:00N 17°00' W 061°46'0 0.0
2018-Mar-11 02:30N 17°00' W 061°46'0 0.0
2018-Mar-11 02:00N 17°00' W 061°46'0 0.0
2018-Mar-11 01:30N 17°00' W 061°46'0 0.0
2018-Mar-11 01:00N 17°00' W 061°46'0 0.0
2018-Mar-11 00:27N 17°00' W 061°46'0 0.0
2018-Mar-11 00:00N 17°00' W 061°46'0 0.0
2018-Mar-10 23:30N 17°00' W 061°46'0 0.0
2018-Mar-10 23:00N 17°00' W 061°46'0 0.0
2018-Mar-10 22:27N 17°00' W 061°46'0 0.2
2018-Mar-10 22:00N 17°00' W 061°46'1 2.0
2018-Mar-10 21:30N 16°60' W 061°46'4 8.5
2018-Mar-10 21:00N 16°56' W 061°44'  

Dump ship's entire track history